Time;durP1;ratioP1;P1;durP2;ratioP2;P2;SDS_P1;SDS_P2;PMS_P1;PMS_P2;Temp;Humidity;BMP_temperature;BMP_pressure;BME280_temperature;BME280_humidity;BME280_pressure;Samples;Min_cycle;Max_cycle;Signal;HPM_P1;HPM_P2
2021/12/18 00:00:51;;;;;;;20.23;16.93;;;;;;;4.71;83.50;97275.25;4343204;32;20315;-59
2021/12/18 00:03:17;;;;;;;22.07;18.13;;;;;;;4.61;84.38;97274.88;4343397;32;20282;-59
2021/12/18 00:05:44;;;;;;;21.43;17.57;;;;;;;4.58;83.47;97275.28;4359107;32;20268;-59
2021/12/18 00:08:11;;;;;;;21.17;18.17;;;;;;;4.49;84.20;97279.97;4357915;32;20317;-59
2021/12/18 00:10:36;;;;;;;20.20;17.90;;;;;;;4.43;84.14;97291.28;4343871;32;20317;-60
2021/12/18 00:13:04;;;;;;;21.30;17.23;;;;;;;4.52;84.03;97286.63;4358391;32;20347;-59
2021/12/18 00:15:31;;;;;;;18.97;15.37;;;;;;;4.37;85.32;97286.84;4345710;32;20174;-59
2021/12/18 00:17:57;;;;;;;18.43;15.10;;;;;;;4.58;84.45;97285.78;4368090;32;20269;-59
2021/12/18 00:20:26;;;;;;;18.77;15.67;;;;;;;4.44;84.95;97287.66;4355506;32;20364;-59
2021/12/18 00:22:53;;;;;;;17.83;13.60;;;;;;;4.63;84.76;97285.97;4355254;32;20185;-59
2021/12/18 00:25:20;;;;;;;20.43;14.77;;;;;;;4.42;84.99;97287.03;4351555;32;20312;-59
2021/12/18 00:27:47;;;;;;;17.17;14.00;;;;;;;4.33;85.36;97287.47;4342492;32;20293;-59
2021/12/18 00:30:13;;;;;;;17.87;13.93;;;;;;;4.37;85.50;97289.47;4343909;32;20384;-59
2021/12/18 00:32:39;;;;;;;17.63;14.00;;;;;;;4.30;85.80;97293.13;4356327;32;20262;-59
2021/12/18 00:35:07;;;;;;;19.33;15.77;;;;;;;4.03;86.11;97298.41;4347460;32;20261;-59
2021/12/18 00:37:34;;;;;;;19.33;14.93;;;;;;;3.90;87.38;97310.75;4331266;32;20274;-60
2021/12/18 00:40:05;;;;;;;18.50;14.30;;;;;;;3.97;87.22;97314.97;4357592;32;20269;-59
2021/12/18 00:45:06;;;;;;;17.37;13.93;;;;;;;3.71;87.65;97328.91;4355095;32;20280;-60
2021/12/18 00:47:32;;;;;;;20.63;15.00;;;;;;;3.62;87.80;97321.41;4353090;32;20292;-59
2021/12/18 00:49:59;;;;;;;20.87;15.83;;;;;;;3.51;88.56;97325.44;4361608;32;20293;-59
2021/12/18 00:52:25;;;;;;;20.83;15.20;;;;;;;3.37;89.44;97324.56;4341985;32;20280;-59
2021/12/18 00:54:52;;;;;;;20.20;15.43;;;;;;;3.32;89.81;97329.62;4344445;32;20285;-59
2021/12/18 00:57:18;;;;;;;20.23;14.17;;;;;;;3.29;90.14;97331.81;4356148;32;20274;-59
2021/12/18 00:59:45;;;;;;;20.33;14.53;;;;;;;3.32;90.39;97334.88;4337344;32;20293;-59
2021/12/18 01:02:12;;;;;;;18.90;15.37;;;;;;;3.35;89.97;97341.50;4355955;32;20262;-59
2021/12/18 01:04:37;;;;;;;19.93;15.23;;;;;;;3.61;89.31;97330.28;4342062;32;20341;-60
2021/12/18 01:07:02;;;;;;;21.53;15.50;;;;;;;3.55;88.95;97331.88;4341078;32;20269;-65
2021/12/18 01:10:14;;;;;;;20.23;15.20;;;;;;;3.45;89.04;97327.03;4357065;32;20189;-59
2021/12/18 01:12:28;;;;;;;23.37;16.27;;;;;;;3.38;89.14;97336.69;4353160;32;20170;-59
2021/12/18 01:23:08;;;;;;;21.83;15.63;;;;;;;3.25;90.32;97362.88;4355346;32;20319;-60
2021/12/18 01:25:34;;;;;;;21.00;15.80;;;;;;;3.18;90.76;97356.78;4351769;32;20356;-60
2021/12/18 01:28:01;;;;;;;23.20;15.60;;;;;;;3.30;90.52;97365.72;4340117;32;20169;-59
2021/12/18 01:30:26;;;;;;;20.87;16.30;;;;;;;3.40;90.35;97375.84;4352809;32;20270;-59
2021/12/18 01:32:52;;;;;;;24.10;16.57;;;;;;;3.30;89.92;97365.72;4355342;32;20380;-59
2021/12/18 01:35:18;;;;;;;25.17;16.70;;;;;;;3.46;89.87;97359.31;4355518;32;20185;-59
2021/12/18 01:37:45;;;;;;;25.40;16.53;;;;;;;3.41;89.74;97362.53;4346861;32;20181;-59
2021/12/18 01:40:12;;;;;;;22.50;16.20;;;;;;;3.28;90.02;97374.78;4342805;32;20266;-59
2021/12/18 01:43:38;;;;;;;22.80;16.33;;;;;;;3.36;90.22;97377.22;4341731;32;20272;-60
2021/12/18 01:53:31;;;;;;;21.73;15.17;;;;;;;3.47;89.80;97371.44;4356293;32;20288;-59
2021/12/18 01:55:57;;;;;;;24.00;17.40;;;;;;;3.70;88.51;97358.78;4354964;32;20266;-59
2021/12/18 01:58:24;;;;;;;21.70;15.60;;;;;;;3.54;89.24;97340.75;4342382;32;21485;-59
2021/12/18 02:00:52;;;;;;;20.90;15.03;;;;;;;3.73;88.39;97328.69;4355592;32;20209;-59
2021/12/18 02:03:20;;;;;;;23.70;16.97;;;;;;;3.89;87.49;97330.94;4339626;33;20285;-59
2021/12/18 02:05:48;;;;;;;26.80;17.40;;;;;;;3.58;87.83;97320.97;4355052;33;20300;-60
2021/12/18 02:08:18;;;;;;;28.17;18.97;;;;;;;3.65;88.17;97327.06;4342219;33;20320;-60
2021/12/18 02:10:50;;;;;;;25.93;17.67;;;;;;;3.52;89.07;97334.91;4342319;33;20265;-59
2021/12/18 02:21:31;;;;;;;25.83;17.23;;;;;;;3.74;88.63;97325.84;4334311;33;20331;-59
2021/12/18 02:23:59;;;;;;;27.60;17.83;;;;;;;3.78;88.14;97326.25;4355833;33;20276;-59
2021/12/18 02:26:25;;;;;;;29.87;18.10;;;;;;;3.84;87.76;97320.22;4341429;33;20312;-59
2021/12/18 02:28:52;;;;;;;30.67;18.90;;;;;;;3.80;88.13;97311.94;4355499;33;20274;-59
2021/12/18 02:31:19;;;;;;;31.53;19.63;;;;;;;3.88;87.55;97316.19;4345199;32;20282;-59
2021/12/18 02:33:45;;;;;;;29.20;18.80;;;;;;;3.79;87.92;97318.19;4350477;32;20284;-59
2021/12/18 02:36:19;;;;;;;32.83;19.10;;;;;;;3.91;88.22;97326.28;4341659;33;20335;-60
2021/12/18 02:41:41;;;;;;;30.70;18.50;;;;;;;3.38;89.94;97326.19;4354062;33;20295;-60
2021/12/18 02:44:18;;;;;;;38.37;18.07;;;;;;;3.23;91.19;97328.16;4351335;33;20307;-60
2021/12/18 02:46:46;;;;;;;31.07;17.00;;;;;;;3.13;91.73;97330.34;4340587;33;20273;-59
2021/12/18 02:49:15;;;;;;;29.27;18.93;;;;;;;3.15;91.88;97309.97;4351055;33;20281;-59
2021/12/18 02:51:41;;;;;;;30.90;17.83;;;;;;;3.48;90.62;97294.34;4326532;33;20286;-60
2021/12/18 02:54:08;;;;;;;29.10;18.40;;;;;;;3.65;89.39;97297.38;4350020;33;20312;-60
2021/12/18 02:56:35;;;;;;;28.13;17.57;;;;;;;3.52;89.68;97292.94;4353798;33;20207;-60
2021/12/18 02:59:05;;;;;;;35.30;17.47;;;;;;;3.59;89.59;97306.06;4358213;32;20269;-60
2021/12/18 03:01:33;;;;;;;29.57;18.03;;;;;;;3.41;89.42;97310.06;4334738;33;20267;-59
2021/12/18 03:04:02;;;;;;;25.07;14.90;;;;;;;3.76;88.94;97294.16;4317883;33;20305;-59
2021/12/18 03:25:30;;;;;;;22.50;15.70;;;;;;;3.60;88.07;97284.06;4335482;33;20414;-60
2021/12/18 03:27:46;;;;;;;22.67;14.40;;;;;;;3.52;88.00;97279.03;4311176;33;20342;-59
2021/12/18 03:30:12;;;;;;;21.70;14.03;;;;;;;3.50;88.76;97278.41;4325762;33;20274;-60
2021/12/18 03:32:37;;;;;;;20.37;13.17;;;;;;;3.43;88.70;97276.56;4340638;33;20169;-60
2021/12/18 03:35:06;;;;;;;22.97;13.53;;;;;;;3.42;87.64;97280.19;4341185;33;20305;-59
2021/12/18 03:37:34;;;;;;;21.67;14.00;;;;;;;3.36;88.61;97283.59;4341485;33;20229;-59
2021/12/18 03:39:59;;;;;;;24.90;15.43;;;;;;;3.43;88.32;97287.06;4337347;32;20270;-59
2021/12/18 03:42:25;;;;;;;29.03;16.07;;;;;;;3.38;88.73;97286.84;4328785;33;20308;-59
2021/12/18 03:44:50;;;;;;;26.23;15.80;;;;;;;3.33;88.81;97283.19;4342424;33;20251;-59
2021/12/18 03:47:17;;;;;;;31.40;16.33;;;;;;;3.07;90.18;97283.97;4328610;33;20204;-59
2021/12/18 03:49:42;;;;;;;21.87;14.67;;;;;;;3.08;90.71;97280.34;4331278;32;20212;-59
2021/12/18 03:52:09;;;;;;;31.60;17.50;;;;;;;3.29;90.50;97295.91;4342186;33;20286;-60
2021/12/18 03:54:35;;;;;;;29.53;16.13;;;;;;;3.16;90.75;97297.69;4342105;33;20228;-60
2021/12/18 03:57:01;;;;;;;30.03;16.83;;;;;;;3.07;90.95;97291.81;4343801;33;20266;-59
2021/12/18 03:59:26;;;;;;;23.83;15.33;;;;;;;3.40;89.89;97290.09;4328648;33;20184;-59
2021/12/18 04:01:51;;;;;;;22.73;14.80;;;;;;;3.45;89.57;97287.69;4341725;33;20169;-59
2021/12/18 04:04:18;;;;;;;22.93;14.20;;;;;;;3.19;89.54;97290.22;4347756;32;20182;-59
2021/12/18 04:06:43;;;;;;;23.57;14.73;;;;;;;3.17;89.98;97281.75;4343834;32;20288;-59
2021/12/18 04:09:11;;;;;;;23.93;14.00;;;;;;;2.99;90.31;97284.12;4340142;32;20290;-59
2021/12/18 04:11:39;;;;;;;22.33;14.30;;;;;;;3.10;90.04;97280.94;4341780;33;20166;-60
2021/12/18 04:14:04;;;;;;;20.27;13.50;;;;;;;3.33;89.25;97272.69;4327796;33;20266;-61
2021/12/18 04:16:30;;;;;;;18.87;13.50;;;;;;;3.41;88.50;97272.53;4343712;33;20308;-59
2021/12/18 04:18:56;;;;;;;21.50;13.83;;;;;;;3.64;87.92;97278.22;4334085;33;20170;-59
2021/12/18 04:21:21;;;;;;;22.53;14.30;;;;;;;3.50;88.27;97281.03;4350867;32;20300;-59
2021/12/18 04:23:47;;;;;;;21.10;13.30;;;;;;;3.51;88.49;97277.41;4347454;32;20182;-59
2021/12/18 04:26:13;;;;;;;18.87;12.80;;;;;;;3.38;89.04;97283.41;4339738;33;20178;-59
2021/12/18 04:28:40;;;;;;;19.03;12.47;;;;;;;3.20;89.51;97286.59;4340949;33;20253;-59
2021/12/18 04:31:06;;;;;;;21.73;13.43;;;;;;;3.22;89.54;97286.41;4337654;33;20259;-59
2021/12/18 04:33:32;;;;;;;19.93;12.17;;;;;;;3.12;89.80;97302.50;4339994;33;20357;-59
2021/12/18 04:35:59;;;;;;;18.03;12.10;;;;;;;3.29;89.62;97295.91;4339906;33;20225;-59
2021/12/18 04:38:26;;;;;;;20.53;13.43;;;;;;;3.56;88.04;97285.47;4341001;33;20277;-59
2021/12/18 04:40:52;;;;;;;18.93;13.07;;;;;;;3.61;87.61;97289.09;4337452;33;20314;-59
2021/12/18 04:43:17;;;;;;;17.97;11.73;;;;;;;3.29;88.50;97297.75;4337937;33;20286;-59
2021/12/18 04:45:42;;;;;;;18.77;12.17;;;;;;;3.15;88.77;97307.34;4340571;32;20173;-59
2021/12/18 04:48:08;;;;;;;18.23;11.97;;;;;;;3.15;89.58;97303.94;4340963;32;20181;-59
2021/12/18 04:50:33;;;;;;;19.07;11.83;;;;;;;3.25;89.47;97297.31;4342859;32;20182;-59
2021/12/18 04:53:00;;;;;;;15.40;10.83;;;;;;;3.37;89.25;97297.53;4341175;32;20182;-59
2021/12/18 04:55:26;;;;;;;16.70;10.70;;;;;;;3.12;89.47;97307.75;4340990;33;20272;-59
2021/12/18 04:57:54;;;;;;;16.53;11.20;;;;;;;3.41;88.31;97298.75;4340674;33;20296;-59
2021/12/18 05:00:27;;;;;;;18.07;12.50;;;;;;;3.22;88.65;97304.75;4334437;33;20519;-59
2021/12/18 05:02:54;;;;;;;16.73;11.87;;;;;;;2.92;90.03;97307.69;4327639;33;20324;-59
2021/12/18 05:05:20;;;;;;;17.97;12.30;;;;;;;3.20;89.41;97301.53;4340757;32;20316;-58
2021/12/18 05:07:46;;;;;;;18.87;11.13;;;;;;;3.23;89.20;97296.72;4340180;33;20290;-59
2021/12/18 05:10:13;;;;;;;18.97;11.67;;;;;;;3.29;88.97;97305.59;4333714;33;20198;-59
2021/12/18 05:12:39;;;;;;;15.70;11.23;;;;;;;3.20;89.04;97304.97;4340876;33;20270;-59
2021/12/18 05:15:05;;;;;;;14.50;10.67;;;;;;;3.22;89.25;97310.81;4327549;33;20284;-63
2021/12/18 05:17:31;;;;;;;16.47;11.10;;;;;;;3.29;88.00;97306.41;4341315;33;20270;-59
2021/12/18 05:19:56;;;;;;;17.70;12.00;;;;;;;3.49;87.51;97306.44;4344514;32;20274;-59
2021/12/18 05:22:22;;;;;;;14.77;10.47;;;;;;;3.42;87.51;97316.94;4330137;33;20232;-59
2021/12/18 05:24:51;;;;;;;14.10;10.50;;;;;;;3.30;88.19;97318.53;4339766;33;20174;-59
2021/12/18 05:27:17;;;;;;;12.53;8.73;;;;;;;3.44;87.70;97317.53;4334776;32;20188;-59
2021/12/18 05:29:43;;;;;;;15.40;9.93;;;;;;;3.32;87.66;97311.28;4339553;32;20274;-59
2021/12/18 05:32:10;;;;;;;15.67;10.13;;;;;;;3.34;87.47;97303.16;4333461;33;20381;-60
2021/12/18 05:34:37;;;;;;;13.57;9.63;;;;;;;3.29;87.06;97314.28;4317248;32;20173;-60
2021/12/18 05:37:32;;;;;;;13.77;10.53;;;;;;;3.33;87.65;97307.59;4333124;33;20270;-60
2021/12/18 05:40:02;;;;;;;16.47;10.37;;;;;;;3.41;87.59;97302.19;4340014;33;20270;-60
2021/12/18 05:42:28;;;;;;;15.57;10.60;;;;;;;3.31;87.59;97301.78;4338918;33;20266;-60
2021/12/18 05:44:55;;;;;;;16.43;10.10;;;;;;;3.39;87.98;97300.78;4340441;32;20181;-60
2021/12/18 05:47:21;;;;;;;13.60;10.10;;;;;;;3.48;87.45;97304.84;4343475;32;20392;-60
2021/12/18 05:49:46;;;;;;;12.77;9.60;;;;;;;3.27;88.02;97302.37;4349707;32;20263;-61
2021/12/18 05:52:11;;;;;;;14.10;10.10;;;;;;;2.99;89.64;97310.34;4340093;33;20223;-60
2021/12/18 05:54:37;;;;;;;12.43;9.43;;;;;;;3.33;88.64;97304.19;4341085;33;20211;-61
2021/12/18 05:57:05;;;;;;;13.83;9.90;;;;;;;3.34;87.66;97303.97;4339455;32;20182;-61
2021/12/18 05:59:31;;;;;;;12.50;9.23;;;;;;;3.48;86.92;97304.03;4349645;32;20174;-61
2021/12/18 06:01:57;;;;;;;11.07;9.43;;;;;;;3.18;87.69;97314.03;4348607;32;20296;-60
2021/12/18 06:04:23;;;;;;;12.10;9.53;;;;;;;3.34;87.52;97303.97;4344613;32;20185;-61
2021/12/18 06:06:49;;;;;;;12.87;9.40;;;;;;;3.25;87.56;97314.88;4340355;32;20270;-61
2021/12/18 06:09:16;;;;;;;11.57;8.37;;;;;;;3.28;87.58;97312.66;4319261;33;20177;-61
2021/12/18 06:11:42;;;;;;;11.60;8.30;;;;;;;3.04;88.78;97326.28;4339573;33;20274;-61
2021/12/18 06:14:08;;;;;;;11.50;8.87;;;;;;;3.20;87.75;97325.94;4326575;33;20297;-61
2021/12/18 06:16:35;;;;;;;11.13;8.73;;;;;;;3.32;87.24;97316.50;4347188;33;20385;-61
2021/12/18 06:19:02;;;;;;;11.93;8.47;;;;;;;3.41;86.97;97320.56;4341074;32;20305;-61
2021/12/18 06:21:28;;;;;;;12.93;10.07;;;;;;;3.40;86.74;97328.63;4357607;32;20282;-61
2021/12/18 06:23:55;;;;;;;9.60;7.97;;;;;;;3.22;86.86;97336.22;4343221;32;20307;-61
2021/12/18 06:26:22;;;;;;;9.00;7.57;;;;;;;3.38;86.36;97339.31;4338313;33;20376;-60
2021/12/18 06:28:49;;;;;;;6.67;5.80;;;;;;;3.30;85.85;97336.88;4352215;32;20280;-61
2021/12/18 06:31:14;;;;;;;8.80;7.47;;;;;;;3.00;86.01;97328.50;4344915;32;20258;-61
2021/12/18 06:33:39;;;;;;;9.27;7.10;;;;;;;2.96;86.60;97339.56;4358678;32;20615;-61
2021/12/18 06:36:08;;;;;;;8.30;7.50;;;;;;;3.05;87.72;97335.78;4360197;32;20181;-63
2021/12/18 06:38:33;;;;;;;7.10;6.33;;;;;;;3.02;87.61;97330.91;4373069;32;20188;-61
2021/12/18 06:40:59;;;;;;;9.20;7.97;;;;;;;3.19;86.26;97320.88;4348994;32;20270;-61
2021/12/18 06:43:26;;;;;;;9.23;7.87;;;;;;;3.28;86.38;97323.16;4364429;32;20280;-61
2021/12/18 06:45:51;;;;;;;8.63;6.67;;;;;;;2.94;87.57;97331.06;4357702;32;20341;-61
2021/12/18 06:48:17;;;;;;;8.43;7.50;;;;;;;3.10;87.73;97320.28;4359166;32;20278;-61
2021/12/18 06:50:42;;;;;;;7.97;6.87;;;;;;;3.31;86.37;97317.50;4338528;32;20197;-61
2021/12/18 06:53:09;;;;;;;9.07;7.20;;;;;;;3.34;85.92;97311.84;4357543;32;20180;-61
2021/12/18 06:55:35;;;;;;;7.13;6.37;;;;;;;3.26;86.13;97308.63;4360827;32;20195;-61
2021/12/18 06:58:01;;;;;;;7.93;6.63;;;;;;;3.35;85.77;97317.91;4356119;32;20288;-61
2021/12/18 07:00:28;;;;;;;9.03;7.30;;;;;;;3.51;85.10;97312.31;4358135;32;20293;-61
2021/12/18 07:02:55;;;;;;;12.00;8.83;;;;;;;3.51;85.02;97311.50;4329931;33;20186;-61
2021/12/18 07:05:21;;;;;;;8.77;7.33;;;;;;;2.92;87.21;97317.34;4342638;32;20313;-61
2021/12/18 07:07:47;;;;;;;9.83;7.83;;;;;;;3.12;86.80;97319.03;4329158;32;20282;-61
2021/12/18 07:10:16;;;;;;;9.03;7.80;;;;;;;2.94;87.70;97317.97;4356058;32;20204;-61
2021/12/18 07:12:41;;;;;;;7.87;6.70;;;;;;;2.96;87.20;97323.81;4330979;32;20217;-60
2021/12/18 07:15:09;;;;;;;6.90;6.20;;;;;;;3.21;86.73;97314.44;4333117;32;20352;-62
2021/12/18 07:17:37;;;;;;;6.97;6.27;;;;;;;3.21;86.14;97308.41;4374717;32;20188;-61
2021/12/18 07:20:04;;;;;;;7.50;6.67;;;;;;;3.25;85.39;97307.00;4345520;32;20301;-61
2021/12/18 07:22:30;;;;;;;8.77;6.90;;;;;;;3.39;85.41;97306.81;4344507;32;20336;-61
2021/12/18 07:24:56;;;;;;;7.47;6.50;;;;;;;3.44;84.87;97299.19;4344648;32;20518;-61
2021/12/18 07:27:21;;;;;;;9.47;6.83;;;;;;;3.30;85.12;97307.22;4346699;32;20216;-60
2021/12/18 07:29:47;;;;;;;10.67;7.80;;;;;;;3.33;85.49;97312.84;4354560;32;20291;-61
2021/12/18 07:32:12;;;;;;;8.63;7.70;;;;;;;2.97;86.67;97309.72;4341437;32;20173;-61
2021/12/18 07:34:37;;;;;;;10.43;8.50;;;;;;;3.13;86.74;97304.13;4343988;32;20173;-61
2021/12/18 07:37:03;;;;;;;9.70;8.30;;;;;;;3.22;86.68;97304.75;4359375;32;20211;-61
2021/12/18 07:39:30;;;;;;;12.93;8.57;;;;;;;3.31;86.34;97296.53;4350427;32;20188;-61
2021/12/18 07:41:55;;;;;;;12.73;9.13;;;;;;;3.34;86.34;97295.31;4357080;32;20352;-61
2021/12/18 07:44:22;;;;;;;12.80;9.13;;;;;;;3.23;86.70;97299.31;4354795;32;20302;-61
2021/12/18 07:46:49;;;;;;;11.53;9.20;;;;;;;3.31;87.00;97295.72;4341282;32;20170;-61
2021/12/18 07:49:15;;;;;;;13.03;8.97;;;;;;;3.40;86.71;97297.13;4341703;32;20266;-61
2021/12/18 07:51:41;;;;;;;10.53;9.03;;;;;;;3.26;86.68;97304.19;4339972;32;20310;-61
2021/12/18 07:54:06;;;;;;;12.47;10.57;;;;;;;3.22;87.30;97313.44;4357164;32;20372;-64
2021/12/18 07:56:33;;;;;;;13.23;9.70;;;;;;;3.42;86.46;97295.13;4359353;32;20188;-60
2021/12/18 07:59:00;;;;;;;14.33;10.00;;;;;;;3.30;86.46;97302.78;4356523;32;20249;-61
2021/12/18 08:01:25;;;;;;;12.43;9.60;;;;;;;3.29;87.26;97301.16;4369962;32;20367;-60
2021/12/18 08:03:52;;;;;;;14.93;10.40;;;;;;;3.40;87.12;97305.81;4354482;32;20270;-61
2021/12/18 08:06:20;;;;;;;15.30;10.60;;;;;;;3.24;86.61;97313.25;4353585;32;20219;-60
2021/12/18 08:08:48;;;;;;;14.17;10.73;;;;;;;3.21;87.48;97309.19;4357039;32;20280;-61
2021/12/18 08:11:14;;;;;;;12.50;9.90;;;;;;;3.46;86.69;97301.59;4357358;32;20265;-61
2021/12/18 08:13:40;;;;;;;13.40;9.93;;;;;;;3.42;86.32;97308.25;4330835;32;20341;-60
2021/12/18 08:16:06;;;;;;;13.77;9.83;;;;;;;3.25;86.41;97315.69;4344565;32;20312;-63
2021/12/18 08:18:32;;;;;;;14.90;10.23;;;;;;;3.16;87.02;97316.03;4363147;32;20270;-61
2021/12/18 08:20:59;;;;;;;14.77;10.50;;;;;;;3.39;86.23;97314.69;4352041;32;20189;-61
2021/12/18 08:23:26;;;;;;;16.03;10.93;;;;;;;3.30;86.55;97305.41;4343362;32;20269;-61
2021/12/18 08:25:52;;;;;;;15.50;10.87;;;;;;;3.10;87.87;97317.66;4330931;32;20332;-61
2021/12/18 08:28:18;;;;;;;15.97;10.83;;;;;;;3.15;87.63;97328.34;4355353;32;20278;-61
2021/12/18 08:30:43;;;;;;;15.80;10.63;;;;;;;3.14;88.04;97326.72;4343201;32;20316;-61
2021/12/18 08:33:09;;;;;;;14.30;10.80;;;;;;;3.39;86.76;97317.31;4361958;32;20177;-61
2021/12/18 08:35:36;;;;;;;15.10;10.70;;;;;;;3.43;86.37;97317.72;4371152;32;20177;-61
2021/12/18 08:38:03;;;;;;;16.80;11.70;;;;;;;3.18;87.10;97317.47;4352875;32;20260;-61
2021/12/18 08:40:32;;;;;;;16.83;11.70;;;;;;;3.28;86.61;97320.53;4349397;32;20275;-61
2021/12/18 08:42:59;;;;;;;17.43;12.23;;;;;;;3.23;86.61;97316.88;4342336;32;20274;-61
2021/12/18 08:45:25;;;;;;;17.20;12.17;;;;;;;3.22;86.83;97313.44;4349118;32;20340;-61
2021/12/18 08:47:52;;;;;;;16.43;11.20;;;;;;;3.24;87.04;97314.06;4342421;32;20535;-61
2021/12/18 08:50:19;;;;;;;17.07;12.20;;;;;;;3.21;87.20;97311.81;4356691;32;20262;-61
2021/12/18 08:52:47;;;;;;;16.00;11.70;;;;;;;3.48;86.25;97314.53;4355906;32;20277;-61
2021/12/18 08:55:12;;;;;;;17.17;12.03;;;;;;;3.53;86.10;97312.13;4356065;32;20426;-61
2021/12/18 08:57:38;;;;;;;15.03;11.33;;;;;;;3.73;85.13;97318.19;4350508;32;20270;-60
2021/12/18 09:00:09;;;;;;;17.90;12.30;;;;;;;3.37;86.10;97313.28;4343960;32;20177;-61
2021/12/18 09:02:36;;;;;;;17.07;11.93;;;;;;;3.26;87.10;97317.28;4354927;32;20181;-61
2021/12/18 09:05:01;;;;;;;16.83;12.00;;;;;;;3.13;87.70;97312.00;4356434;32;20270;-61
2021/12/18 09:07:27;;;;;;;18.60;12.63;;;;;;;3.35;87.00;97316.09;4342535;32;20312;-61
2021/12/18 09:09:53;;;;;;;17.67;12.33;;;;;;;3.45;86.47;97323.59;4347512;32;20170;-61
2021/12/18 09:12:19;;;;;;;15.00;11.37;;;;;;;3.51;86.76;97324.63;4354637;32;20286;-61
2021/12/18 09:14:44;;;;;;;16.73;11.63;;;;;;;3.54;86.72;97318.94;4347761;32;20185;-61
2021/12/18 09:17:10;;;;;;;17.17;12.63;;;;;;;3.54;86.64;97313.72;4356479;32;20261;-61
2021/12/18 09:19:36;;;;;;;19.40;13.50;;;;;;;3.60;86.90;97315.53;4362865;32;20233;-61
2021/12/18 09:22:04;;;;;;;17.17;12.57;;;;;;;3.72;85.91;97311.34;4337384;32;20244;-61
2021/12/18 09:24:31;;;;;;;16.30;11.40;;;;;;;3.69;86.46;97316.97;4349931;32;20280;-61
2021/12/18 09:26:56;;;;;;;16.13;10.63;;;;;;;3.80;85.35;97304.06;4357168;32;20372;-61
2021/12/18 09:29:21;;;;;;;18.40;11.50;;;;;;;3.89;84.15;97307.31;4343975;32;20327;-61
2021/12/18 09:31:47;;;;;;;16.83;11.47;;;;;;;3.82;83.97;97303.84;4343065;32;20174;-61
2021/12/18 09:34:14;;;;;;;15.57;11.40;;;;;;;3.92;83.76;97309.53;4353470;32;20187;-61
2021/12/18 09:36:39;;;;;;;15.40;11.93;;;;;;;3.84;84.13;97308.91;4342274;32;20200;-61
2021/12/18 09:39:06;;;;;;;18.90;12.10;;;;;;;3.84;84.22;97304.47;4352435;32;20273;-61
2021/12/18 09:41:33;;;;;;;16.03;11.17;;;;;;;3.72;84.44;97311.34;4356005;32;20204;-61
2021/12/18 09:43:58;;;;;;;16.50;10.77;;;;;;;3.83;84.21;97308.09;4348184;32;20353;-61
2021/12/18 09:46:25;;;;;;;16.30;11.80;;;;;;;3.90;83.96;97308.13;4342324;32;20274;-61
2021/12/18 09:48:51;;;;;;;17.63;12.33;;;;;;;3.68;83.93;97310.13;4341888;32;20173;-61
2021/12/18 09:51:27;;;;;;;19.37;11.87;;;;;;;3.50;85.29;97302.03;4342050;32;20330;-61
2021/12/18 09:53:55;;;;;;;17.60;12.80;;;;;;;3.68;84.93;97300.44;4355702;32;20170;-61
2021/12/18 09:56:22;;;;;;;18.83;12.50;;;;;;;3.81;84.73;97283.88;4342308;32;20292;-61
2021/12/18 09:58:48;;;;;;;17.40;12.50;;;;;;;3.96;83.91;97286.28;4356021;32;20262;-61
2021/12/18 10:01:13;;;;;;;17.27;11.80;;;;;;;3.99;83.71;97288.50;4348902;32;20315;-61
2021/12/18 10:03:48;;;;;;;18.43;11.87;;;;;;;3.98;83.27;97284.25;4355306;32;20177;-62
2021/12/18 10:06:39;;;;;;;52.63;9.37;;;;;;;3.97;83.20;97282.66;4342040;32;20256;-56
2021/12/18 10:09:31;;;;;;;24.83;11.27;;;;;;;8.10;100.00;97265.37;4360249;32;20281;-50
2021/12/18 10:12:10;;;;;;;17.83;12.13;;;;;;;10.01;85.49;97265.94;4338560;32;20372;-55
2021/12/18 10:14:40;;;;;;;15.73;11.50;;;;;;;10.51;67.77;97267.78;4352811;32;20261;-56
2021/12/18 10:17:31;;;;;;;14.63;10.40;;;;;;;11.32;64.43;97256.31;4360582;32;20300;-51
2021/12/18 10:20:09;;;;;;;11.83;10.60;;;;;;;11.96;60.80;97260.94;4360991;32;20447;-55
2021/12/18 10:23:05;;;;;;;11.47;10.27;;;;;;;12.54;56.13;97256.53;4358775;32;20192;-56
2021/12/18 10:25:40;;;;;;;13.13;11.13;;;;;;;12.66;55.36;97254.50;4356847;32;20208;-55
2021/12/18 10:28:18;;;;;;;11.07;9.90;;;;;;;12.88;52.83;97257.81;4358116;32;20195;-55
2021/12/18 10:30:53;;;;;;;11.57;9.93;;;;;;;13.13;51.96;97248.28;4366280;32;20236;-55
2021/12/18 10:33:24;;;;;;;13.60;11.17;;;;;;;13.04;52.06;97251.47;4355251;32;20197;-55
2021/12/18 10:35:53;;;;;;;12.07;10.73;;;;;;;12.92;51.04;97252.75;4339753;32;20184;-51
2021/12/18 10:38:56;;;;;;;13.00;10.93;;;;;;;12.93;51.97;97249.81;4346196;32;20177;-55
2021/12/18 10:41:37;;;;;;;11.70;10.13;;;;;;;12.71;52.17;97252.66;4288126;33;20303;-52
2021/12/18 10:44:11;;;;;;;12.37;10.47;;;;;;;12.79;51.52;97253.22;4339377;32;20181;-52
2021/12/18 10:46:39;;;;;;;11.30;10.10;;;;;;;12.68;51.39;97247.81;4356905;32;20234;-58
2021/12/18 10:49:13;;;;;;;12.07;10.87;;;;;;;12.63;51.44;97255.00;4337034;32;20192;-55
2021/12/18 10:51:39;;;;;;;11.93;10.60;;;;;;;12.40;51.56;97256.22;4348692;32;20162;-53
2021/12/18 10:54:13;;;;;;;12.63;11.30;;;;;;;12.64;50.82;97243.31;4359967;32;20244;-56
2021/12/18 10:57:00;;;;;;;10.77;9.40;;;;;;;12.88;49.91;97257.00;4354138;32;20235;-54
2021/12/18 10:59:52;;;;;;;12.23;9.87;;;;;;;13.01;49.77;97254.66;4356931;32;20203;-55
2021/12/18 11:02:19;;;;;;;11.70;9.53;;;;;;;13.28;49.80;97248.38;4362816;32;20219;-54
2021/12/18 11:04:45;;;;;;;10.87;9.23;;;;;;;13.53;49.23;97248.41;4338111;32;20174;-55
2021/12/18 11:07:46;;;;;;;12.63;11.30;;;;;;;13.83;52.48;97245.00;4343774;32;20243;-60
2021/12/18 11:16:01;;;;;;;13.63;11.87;;;;;;;8.10;62.00;97244.25;4325512;33;20204;-59
2021/12/18 11:18:27;;;;;;;16.57;11.07;;;;;;;6.97;65.72;97241.66;4333485;32;20264;-59
2021/12/18 11:20:53;;;;;;;13.50;10.43;;;;;;;6.48;68.75;97229.44;4339276;32;20200;-58
2021/12/18 11:23:41;;;;;;;14.93;11.13;;;;;;;5.87;71.75;97223.12;4342979;32;20271;-59
2021/12/18 11:26:09;;;;;;;14.13;10.20;;;;;;;5.99;72.08;97215.38;4340788;33;20197;-62
2021/12/18 11:28:41;;;;;;;12.10;10.07;;;;;;;5.93;72.13;97200.44;4344505;33;20316;-59
2021/12/18 11:31:07;;;;;;;12.83;10.27;;;;;;;5.72;73.25;97203.41;4341362;33;20300;-63
2021/12/18 11:33:41;;;;;;;11.50;9.43;;;;;;;5.48;74.49;97202.38;4344324;33;20266;-59
2021/12/18 11:36:08;;;;;;;14.50;10.07;;;;;;;5.20;74.31;97204.63;4327285;33;20215;-65
2021/12/18 11:38:41;;;;;;;14.87;10.87;;;;;;;5.13;75.51;97204.66;4344009;33;20286;-59
2021/12/18 11:41:14;;;;;;;16.67;12.90;;;;;;;5.29;75.70;97193.63;4339888;33;20300;-63
2021/12/18 11:43:44;;;;;;;16.87;11.43;;;;;;;5.11;76.09;97202.25;4328600;33;20300;-59
2021/12/18 11:46:34;;;;;;;16.27;11.33;;;;;;;5.15;76.40;97184.22;4328937;33;20258;-59
2021/12/18 11:49:06;;;;;;;17.23;10.60;;;;;;;5.17;76.09;97185.62;4330836;33;20270;-57
2021/12/18 11:51:33;;;;;;;13.23;9.97;;;;;;;4.91;76.79;97185.78;4342432;33;20346;-58
2021/12/18 11:54:03;;;;;;;14.07;11.33;;;;;;;5.17;76.48;97183.00;4337705;33;20297;-58
2021/12/18 11:56:45;;;;;;;15.97;10.83;;;;;;;4.86;77.27;97182.16;4329238;33;20262;-59
2021/12/18 11:59:12;;;;;;;21.43;11.90;;;;;;;4.07;80.50;97184.09;4327108;33;20321;-59
2021/12/18 12:01:45;;;;;;;14.53;11.77;;;;;;;4.11;80.75;97180.03;4328086;32;20263;-60
2021/12/18 12:04:10;;;;;;;18.03;11.63;;;;;;;4.20;81.26;97177.19;4331244;33;20284;-59
2021/12/18 12:06:38;;;;;;;16.70;11.20;;;;;;;4.21;81.28;97170.91;4329724;33;20286;-59
2021/12/18 12:09:26;;;;;;;15.40;10.93;;;;;;;4.06;81.27;97171.16;4321980;33;20186;-59
2021/12/18 12:11:58;;;;;;;22.00;11.80;;;;;;;4.23;81.55;97163.63;4304755;32;20322;-59
2021/12/18 12:14:40;;;;;;;15.33;11.33;;;;;;;4.45;80.12;97157.09;4330773;32;20289;-59
2021/12/18 12:17:24;;;;;;;16.10;11.57;;;;;;;4.38;79.83;97153.66;4308212;32;20279;-59
2021/12/18 12:19:59;;;;;;;15.70;10.97;;;;;;;4.54;79.68;97166.34;4326518;32;20336;-60
2021/12/18 12:22:48;;;;;;;19.87;10.43;;;;;;;4.51;80.08;97156.25;4318933;32;20274;-60
2021/12/18 12:25:30;;;;;;;16.30;11.60;;;;;;;4.64;79.51;97161.44;4289349;33;20299;-59
2021/12/18 12:28:09;;;;;;;16.53;10.97;;;;;;;4.36;80.61;97156.53;4327660;32;20278;-60